<?xml version="1.0" encoding="UTF-8" standalone="no" ?>
<gpx xmlns="http://www.topografix.com/GPX/1/1" xmlns:xsi="http://www.w3.org/2001/XMLSchema-instance" xsi:schemaLocation="http://www.topografix.com/GPX/1/1 http://www.topografix.com/GPX/1/1/gpx.xsd" version="1.1" creator="VisuGPX - https://www.visugpx.com">
  <metadata>
    <name>Joue_VioreauProvostiere_13-24km</name>
    <desc><![CDATA[gnerando idor:6087651_6502859_12533576]]></desc>
  </metadata>
  <trk>
    <name><![CDATA[Joué_VioreauProvostiereCourt_20.9km-12533575]]></name>
    <extensions>
      <line xmlns="http://www.topografix.com/GPX/gpx_style/0/2">
        <color>0000FF</color>
        <width>4</width>
      </line>
    </extensions>
    <trkseg>
      <trkpt lat="47.51814" lon="-1.43034">
        <ele>34</ele>
        <time>2023-11-02T10:50:30Z</time>
      </trkpt>
      <trkpt lat="47.51737" lon="-1.43049">
        <ele>34</ele>
        <time>2023-11-02T10:52:14Z</time>
      </trkpt>
      <trkpt lat="47.51758" lon="-1.42869">
        <ele>37</ele>
        <time>2023-11-02T10:54:58Z</time>
      </trkpt>
      <trkpt lat="47.51856" lon="-1.42852">
        <ele>36</ele>
        <time>2023-11-02T10:57:10Z</time>
      </trkpt>
      <trkpt lat="47.51897" lon="-1.42783">
        <ele>36</ele>
        <time>2023-11-02T10:58:33Z</time>
      </trkpt>
      <trkpt lat="47.51981" lon="-1.42114">
        <ele>34</ele>
        <time>2023-11-02T11:08:46Z</time>
      </trkpt>
      <trkpt lat="47.52082" lon="-1.42075">
        <ele>33</ele>
        <time>2023-11-02T11:11:05Z</time>
      </trkpt>
      <trkpt lat="47.52146" lon="-1.41749">
        <ele>33</ele>
        <time>2023-11-02T11:16:11Z</time>
      </trkpt>
      <trkpt lat="47.52149" lon="-1.41457">
        <ele>34</ele>
        <time>2023-11-02T11:20:34Z</time>
      </trkpt>
      <trkpt lat="47.52198" lon="-1.41316">
        <ele>34</ele>
        <time>2023-11-02T11:22:57Z</time>
      </trkpt>
      <trkpt lat="47.52273" lon="-1.4126">
        <ele>34</ele>
        <time>2023-11-02T11:24:49Z</time>
      </trkpt>
      <trkpt lat="47.52328" lon="-1.4105">
        <ele>34</ele>
        <time>2023-11-02T11:28:12Z</time>
      </trkpt>
      <trkpt lat="47.52418" lon="-1.41011">
        <ele>33</ele>
        <time>2023-11-02T11:30:18Z</time>
      </trkpt>
      <trkpt lat="47.52444" lon="-1.40822">
        <ele>33</ele>
        <time>2023-11-02T11:33:11Z</time>
      </trkpt>
      <trkpt lat="47.52389" lon="-1.40749">
        <ele>34</ele>
        <time>2023-11-02T11:34:50Z</time>
      </trkpt>
      <trkpt lat="47.52302" lon="-1.40788">
        <ele>34</ele>
        <time>2023-11-02T11:36:51Z</time>
      </trkpt>
      <trkpt lat="47.52323" lon="-1.40633">
        <ele>32</ele>
        <time>2023-11-02T11:39:14Z</time>
      </trkpt>
      <trkpt lat="47.52302" lon="-1.40462">
        <ele>33</ele>
        <time>2023-11-02T11:41:50Z</time>
      </trkpt>
      <trkpt lat="47.52331" lon="-1.40256">
        <ele>34</ele>
        <time>2023-11-02T11:45:00Z</time>
      </trkpt>
      <trkpt lat="47.52317" lon="-1.40075">
        <ele>33</ele>
        <time>2023-11-02T11:47:44Z</time>
      </trkpt>
      <trkpt lat="47.52224" lon="-1.40067">
        <ele>34</ele>
        <time>2023-11-02T11:49:48Z</time>
      </trkpt>
      <trkpt lat="47.52276" lon="-1.39715">
        <ele>33</ele>
        <time>2023-11-02T11:55:13Z</time>
      </trkpt>
      <trkpt lat="47.5223" lon="-1.39603">
        <ele>34</ele>
        <time>2023-11-02T11:57:11Z</time>
      </trkpt>
      <trkpt lat="47.52198" lon="-1.39513">
        <ele>33</ele>
        <time>2023-11-02T11:58:43Z</time>
      </trkpt>
      <trkpt lat="47.52215" lon="-1.3944">
        <ele>33</ele>
        <time>2023-11-02T11:59:53Z</time>
      </trkpt>
      <trkpt lat="47.523" lon="-1.39406">
        <ele>32</ele>
        <time>2023-11-02T12:01:50Z</time>
      </trkpt>
      <trkpt lat="47.52349" lon="-1.39286">
        <ele>34</ele>
        <time>2023-11-02T12:03:56Z</time>
      </trkpt>
      <trkpt lat="47.52447" lon="-1.39178">
        <ele>37</ele>
        <time>2023-11-02T12:06:39Z</time>
      </trkpt>
      <trkpt lat="47.52508" lon="-1.38771">
        <ele>38</ele>
        <time>2023-11-02T12:12:55Z</time>
      </trkpt>
      <trkpt lat="47.52569" lon="-1.38668">
        <ele>40</ele>
        <time>2023-11-02T12:14:59Z</time>
      </trkpt>
      <trkpt lat="47.5256" lon="-1.38616">
        <ele>39</ele>
        <time>2023-11-02T12:15:47Z</time>
      </trkpt>
      <trkpt lat="47.52439" lon="-1.38526">
        <ele>37</ele>
        <time>2023-11-02T12:18:48Z</time>
      </trkpt>
      <trkpt lat="47.52389" lon="-1.37415">
        <ele>41</ele>
        <time>2023-11-02T12:35:31Z</time>
      </trkpt>
      <trkpt lat="47.52094" lon="-1.37277">
        <ele>34</ele>
        <time>2023-11-02T12:42:24Z</time>
      </trkpt>
      <trkpt lat="47.52091" lon="-1.37123">
        <ele>33</ele>
        <time>2023-11-02T12:44:43Z</time>
      </trkpt>
      <trkpt lat="47.5212" lon="-1.36925">
        <ele>29</ele>
        <time>2023-11-02T12:47:45Z</time>
      </trkpt>
      <trkpt lat="47.52117" lon="-1.36685">
        <ele>29</ele>
        <time>2023-11-02T12:51:22Z</time>
      </trkpt>
      <trkpt lat="47.52175" lon="-1.36513">
        <ele>33</ele>
        <time>2023-11-02T12:54:15Z</time>
      </trkpt>
      <trkpt lat="47.52123" lon="-1.36372">
        <ele>30</ele>
        <time>2023-11-02T12:56:40Z</time>
      </trkpt>
      <trkpt lat="47.52123" lon="-1.36144">
        <ele>30</ele>
        <time>2023-11-02T13:00:05Z</time>
      </trkpt>
      <trkpt lat="47.52178" lon="-1.35908">
        <ele>29</ele>
        <time>2023-11-02T13:03:50Z</time>
      </trkpt>
      <trkpt lat="47.52276" lon="-1.3581">
        <ele>32</ele>
        <time>2023-11-02T13:06:28Z</time>
      </trkpt>
      <trkpt lat="47.52279" lon="-1.35664">
        <ele>33</ele>
        <time>2023-11-02T13:08:39Z</time>
      </trkpt>
      <trkpt lat="47.52172" lon="-1.35518">
        <ele>30</ele>
        <time>2023-11-02T13:11:54Z</time>
      </trkpt>
      <trkpt lat="47.52271" lon="-1.35187">
        <ele>30</ele>
        <time>2023-11-02T13:17:20Z</time>
      </trkpt>
      <trkpt lat="47.52328" lon="-1.34874">
        <ele>29</ele>
        <time>2023-11-02T13:22:12Z</time>
      </trkpt>
      <trkpt lat="47.52502" lon="-1.34677">
        <ele>32</ele>
        <time>2023-11-02T13:27:04Z</time>
      </trkpt>
      <trkpt lat="47.52552" lon="-1.34749">
        <ele>33</ele>
        <time>2023-11-02T13:28:37Z</time>
      </trkpt>
      <trkpt lat="47.52558" lon="-1.34879">
        <ele>35</ele>
        <time>2023-11-02T13:30:35Z</time>
      </trkpt>
      <trkpt lat="47.52622" lon="-1.34946">
        <ele>35</ele>
        <time>2023-11-02T13:32:19Z</time>
      </trkpt>
      <trkpt lat="47.52737" lon="-1.34922">
        <ele>35</ele>
        <time>2023-11-02T13:34:54Z</time>
      </trkpt>
      <trkpt lat="47.52648" lon="-1.34576">
        <ele>35</ele>
        <time>2023-11-02T13:40:28Z</time>
      </trkpt>
      <trkpt lat="47.52775" lon="-1.34449">
        <ele>36</ele>
        <time>2023-11-02T13:43:52Z</time>
      </trkpt>
      <trkpt lat="47.52925" lon="-1.34482">
        <ele>37</ele>
        <time>2023-11-02T13:47:15Z</time>
      </trkpt>
      <trkpt lat="47.53105" lon="-1.34415">
        <ele>39</ele>
        <time>2023-11-02T13:51:23Z</time>
      </trkpt>
      <trkpt lat="47.53269" lon="-1.34421">
        <ele>46</ele>
        <time>2023-11-02T13:55:01Z</time>
      </trkpt>
      <trkpt lat="47.53308" lon="-1.34484">
        <ele>49</ele>
        <time>2023-11-02T13:56:18Z</time>
      </trkpt>
      <trkpt lat="47.53273" lon="-1.34725">
        <ele>49</ele>
        <time>2023-11-02T14:00:01Z</time>
      </trkpt>
      <trkpt lat="47.53304" lon="-1.34825">
        <ele>49</ele>
        <time>2023-11-02T14:01:40Z</time>
      </trkpt>
      <trkpt lat="47.53659" lon="-1.34722">
        <ele>51</ele>
        <time>2023-11-02T14:09:42Z</time>
      </trkpt>
      <trkpt lat="47.5379" lon="-1.35377">
        <ele>58</ele>
        <time>2023-11-02T14:19:58Z</time>
      </trkpt>
      <trkpt lat="47.53615" lon="-1.35487">
        <ele>57</ele>
        <time>2023-11-02T14:24:12Z</time>
      </trkpt>
      <trkpt lat="47.53677" lon="-1.35735">
        <ele>58</ele>
        <time>2023-11-02T14:28:10Z</time>
      </trkpt>
      <trkpt lat="47.53683" lon="-1.35869">
        <ele>58</ele>
        <time>2023-11-02T14:30:11Z</time>
      </trkpt>
      <trkpt lat="47.53739" lon="-1.36012">
        <ele>58</ele>
        <time>2023-11-02T14:32:40Z</time>
      </trkpt>
      <trkpt lat="47.53601" lon="-1.36207">
        <ele>58</ele>
        <time>2023-11-02T14:36:54Z</time>
      </trkpt>
      <trkpt lat="47.53417" lon="-1.36373">
        <ele>52</ele>
        <time>2023-11-02T14:41:42Z</time>
      </trkpt>
      <trkpt lat="47.53341" lon="-1.36468">
        <ele>48</ele>
        <time>2023-11-02T14:43:54Z</time>
      </trkpt>
      <trkpt lat="47.53127" lon="-1.36736">
        <ele>48</ele>
        <time>2023-11-02T14:50:08Z</time>
      </trkpt>
      <trkpt lat="47.53033" lon="-1.36852">
        <ele>50</ele>
        <time>2023-11-02T14:52:52Z</time>
      </trkpt>
      <trkpt lat="47.53105" lon="-1.37213">
        <ele>47</ele>
        <time>2023-11-02T14:58:31Z</time>
      </trkpt>
      <trkpt lat="47.53085" lon="-1.3796">
        <ele>39</ele>
        <time>2023-11-02T15:09:44Z</time>
      </trkpt>
      <trkpt lat="47.53192" lon="-1.38131">
        <ele>40</ele>
        <time>2023-11-02T15:13:15Z</time>
      </trkpt>
      <trkpt lat="47.53227" lon="-1.38316">
        <ele>41</ele>
        <time>2023-11-02T15:16:08Z</time>
      </trkpt>
      <trkpt lat="47.53224" lon="-1.38629">
        <ele>46</ele>
        <time>2023-11-02T15:20:50Z</time>
      </trkpt>
      <trkpt lat="47.52995" lon="-1.38556">
        <ele>55</ele>
        <time>2023-11-02T15:26:02Z</time>
      </trkpt>
      <trkpt lat="47.52986" lon="-1.38612">
        <ele>56</ele>
        <time>2023-11-02T15:26:54Z</time>
      </trkpt>
      <trkpt lat="47.5287" lon="-1.38698">
        <ele>55</ele>
        <time>2023-11-02T15:29:47Z</time>
      </trkpt>
      <trkpt lat="47.52949" lon="-1.38972">
        <ele>59</ele>
        <time>2023-11-02T15:34:16Z</time>
      </trkpt>
      <trkpt lat="47.52954" lon="-1.39376">
        <ele>64</ele>
        <time>2023-11-02T15:40:20Z</time>
      </trkpt>
      <trkpt lat="47.53053" lon="-1.39603">
        <ele>62</ele>
        <time>2023-11-02T15:44:23Z</time>
      </trkpt>
      <trkpt lat="47.52963" lon="-1.39728">
        <ele>65</ele>
        <time>2023-11-02T15:47:08Z</time>
      </trkpt>
      <trkpt lat="47.5292" lon="-1.39904">
        <ele>55</ele>
        <time>2023-11-02T15:49:57Z</time>
      </trkpt>
      <trkpt lat="47.52954" lon="-1.40024">
        <ele>56</ele>
        <time>2023-11-02T15:51:54Z</time>
      </trkpt>
      <trkpt lat="47.52902" lon="-1.40058">
        <ele>51</ele>
        <time>2023-11-02T15:53:10Z</time>
      </trkpt>
      <trkpt lat="47.52865" lon="-1.40264">
        <ele>50</ele>
        <time>2023-11-02T15:56:22Z</time>
      </trkpt>
      <trkpt lat="47.5287" lon="-1.40586">
        <ele>52</ele>
        <time>2023-11-02T16:01:12Z</time>
      </trkpt>
      <trkpt lat="47.52853" lon="-1.40749">
        <ele>50</ele>
        <time>2023-11-02T16:03:41Z</time>
      </trkpt>
      <trkpt lat="47.5287" lon="-1.40869">
        <ele>55</ele>
        <time>2023-11-02T16:05:31Z</time>
      </trkpt>
      <trkpt lat="47.5307" lon="-1.41509">
        <ele>58</ele>
        <time>2023-11-02T16:16:07Z</time>
      </trkpt>
      <trkpt lat="47.53134" lon="-1.4174">
        <ele>55</ele>
        <time>2023-11-02T16:19:52Z</time>
      </trkpt>
      <trkpt lat="47.53149" lon="-1.42037">
        <ele>40</ele>
        <time>2023-11-02T16:24:20Z</time>
      </trkpt>
      <trkpt lat="47.5327" lon="-1.42049">
        <ele>45</ele>
        <time>2023-11-02T16:27:02Z</time>
      </trkpt>
      <trkpt lat="47.5334" lon="-1.42165">
        <ele>44</ele>
        <time>2023-11-02T16:29:22Z</time>
      </trkpt>
      <trkpt lat="47.53406" lon="-1.4217">
        <ele>46</ele>
        <time>2023-11-02T16:30:50Z</time>
      </trkpt>
      <trkpt lat="47.53372" lon="-1.42401">
        <ele>48</ele>
        <time>2023-11-02T16:34:23Z</time>
      </trkpt>
      <trkpt lat="47.53409" lon="-1.42702">
        <ele>60</ele>
        <time>2023-11-02T16:38:59Z</time>
      </trkpt>
      <trkpt lat="47.53435" lon="-1.42994">
        <ele>56</ele>
        <time>2023-11-02T16:43:24Z</time>
      </trkpt>
      <trkpt lat="47.53279" lon="-1.42998">
        <ele>52</ele>
        <time>2023-11-02T16:46:52Z</time>
      </trkpt>
      <trkpt lat="47.5312" lon="-1.43114">
        <ele>47</ele>
        <time>2023-11-02T16:50:49Z</time>
      </trkpt>
      <trkpt lat="47.53091" lon="-1.43449">
        <ele>37</ele>
        <time>2023-11-02T16:55:53Z</time>
      </trkpt>
      <trkpt lat="47.53128" lon="-1.4368">
        <ele>40</ele>
        <time>2023-11-02T16:59:27Z</time>
      </trkpt>
      <trkpt lat="47.52981" lon="-1.43805">
        <ele>35</ele>
        <time>2023-11-02T17:03:13Z</time>
      </trkpt>
      <trkpt lat="47.52679" lon="-1.44354">
        <ele>33</ele>
        <time>2023-11-02T17:13:51Z</time>
      </trkpt>
      <trkpt lat="47.52372" lon="-1.44328">
        <ele>34</ele>
        <time>2023-11-02T17:20:42Z</time>
      </trkpt>
      <trkpt lat="47.52369" lon="-1.43603">
        <ele>35</ele>
        <time>2023-11-02T17:31:35Z</time>
      </trkpt>
      <trkpt lat="47.52355" lon="-1.43474">
        <ele>35</ele>
        <time>2023-11-02T17:33:33Z</time>
      </trkpt>
      <trkpt lat="47.52357" lon="-1.43337">
        <ele>34</ele>
        <time>2023-11-02T17:35:36Z</time>
      </trkpt>
      <trkpt lat="47.52305" lon="-1.43195">
        <ele>35</ele>
        <time>2023-11-02T17:38:02Z</time>
      </trkpt>
      <trkpt lat="47.52297" lon="-1.43105">
        <ele>33</ele>
        <time>2023-11-02T17:39:24Z</time>
      </trkpt>
      <trkpt lat="47.51923" lon="-1.43028">
        <ele>34</ele>
        <time>2023-11-02T17:47:47Z</time>
      </trkpt>
      <trkpt lat="47.51865" lon="-1.43019">
        <ele>34</ele>
        <time>2023-11-02T17:49:05Z</time>
      </trkpt>
    </trkseg>
  </trk>
</gpx>